createdAt,value
2023-02-27T00:00:59.547Z,10.30
2023-02-27T00:03:28.886Z,11.70
2023-02-27T00:05:57.249Z,10.50
2023-02-27T00:08:25.745Z,12.90
2023-02-27T00:10:54.079Z,11.90
2023-02-27T00:13:22.305Z,9.60
2023-02-27T00:15:51.274Z,10.50
2023-02-27T00:18:19.358Z,10.20
2023-02-27T00:20:48.700Z,8.70
2023-02-27T00:23:16.787Z,10.40
2023-02-27T00:25:44.993Z,10.30
2023-02-27T00:28:13.140Z,10.70
2023-02-27T00:30:42.014Z,8.40
2023-02-27T00:33:10.915Z,9.60
2023-02-27T00:35:38.983Z,10.60
2023-02-27T00:38:06.946Z,8.90
2023-02-27T00:40:37.792Z,10.20
2023-02-27T00:43:05.856Z,8.30
2023-02-27T00:45:34.060Z,8.30
2023-02-27T00:48:02.308Z,9.40
2023-02-27T00:50:30.582Z,9.70
2023-02-27T00:52:58.563Z,7.60
2023-02-27T00:55:27.469Z,7.10
2023-02-27T00:57:55.817Z,8.70
2023-02-27T01:00:24.710Z,9.60
2023-02-27T01:02:52.862Z,8.50
2023-02-27T01:05:21.525Z,8.60
2023-02-27T01:07:49.542Z,8.50
2023-02-27T01:10:17.610Z,7.70
2023-02-27T01:12:45.682Z,8.20
2023-02-27T01:15:13.958Z,9.00
2023-02-27T01:17:43.360Z,7.40
2023-02-27T01:20:12.907Z,8.40
2023-02-27T01:22:41.449Z,7.50
2023-02-27T01:25:10.270Z,10.00
2023-02-27T01:27:40.967Z,7.90
2023-02-27T01:30:11.719Z,7.00
2023-02-27T01:32:39.807Z,7.40
2023-02-27T01:35:08.578Z,6.80
2023-02-27T01:37:36.635Z,9.70
2023-02-27T01:40:07.298Z,7.90
2023-02-27T01:42:35.652Z,8.90
2023-02-27T01:45:13.079Z,9.00
2023-02-27T01:47:55.951Z,6.70
2023-02-27T01:50:24.877Z,11.10
2023-02-27T01:52:58.833Z,6.90
2023-02-27T01:55:30.272Z,7.30
2023-02-27T01:57:58.784Z,8.50
2023-02-27T02:00:27.422Z,7.50
2023-02-27T02:03:04.930Z,5.80
2023-02-27T02:05:33.440Z,7.50
2023-02-27T02:08:02.586Z,6.60
2023-02-27T02:10:32.400Z,5.70
2023-02-27T02:13:00.929Z,7.30
2023-02-27T02:15:36.600Z,7.80
2023-02-27T02:18:21.955Z,6.20
2023-02-27T02:21:22.180Z,6.70
2023-02-27T02:24:28.242Z,6.00
2023-02-27T02:27:08.398Z,5.40
2023-02-27T02:29:42.608Z,6.50
2023-02-27T02:32:25.971Z,6.50
2023-02-27T02:35:27.103Z,6.30
2023-02-27T02:38:29.295Z,9.00
2023-02-27T02:41:06.950Z,5.70
2023-02-27T02:43:48.513Z,6.80
2023-02-27T02:46:43.747Z,7.70
2023-02-27T02:49:36.303Z,8.10
2023-02-27T02:52:16.971Z,7.60
2023-02-27T02:54:58.456Z,5.70
2023-02-27T02:57:36.395Z,7.30
2023-02-27T03:00:14.962Z,7.80
2023-02-27T03:02:49.156Z,7.80
2023-02-27T03:05:53.497Z,4.80
2023-02-27T03:08:26.970Z,8.70
2023-02-27T03:11:00.765Z,5.30
2023-02-27T03:13:51.546Z,7.50
2023-02-27T03:16:43.434Z,6.60
2023-02-27T03:19:17.869Z,6.90
2023-02-27T03:21:54.469Z,7.80
2023-02-27T03:24:32.267Z,6.90
2023-02-27T03:27:03.195Z,8.30
2023-02-27T03:29:38.400Z,5.80
2023-02-27T03:32:18.938Z,7.10
2023-02-27T03:34:48.364Z,6.30
2023-02-27T03:37:55.689Z,7.90
2023-02-27T03:40:40.210Z,7.60
2023-02-27T03:43:21.595Z,8.80
2023-02-27T03:46:07.923Z,8.90
2023-02-27T03:48:36.580Z,5.90
2023-02-27T03:51:04.748Z,8.10
2023-02-27T03:53:38.142Z,7.00
2023-02-27T03:56:09.201Z,8.00
2023-02-27T03:58:37.461Z,7.90
2023-02-27T04:01:06.149Z,8.30
2023-02-27T04:03:41.207Z,7.70
2023-02-27T04:06:29.017Z,8.90
2023-02-27T04:09:20.124Z,9.50
2023-02-27T04:12:11.068Z,6.20
2023-02-27T04:15:07.269Z,7.90
2023-02-27T04:20:44.819Z,7.50
2023-02-27T04:23:28.251Z,8.20
2023-02-27T04:26:08.300Z,8.90
2023-02-27T04:28:39.305Z,8.30
2023-02-27T04:31:24.997Z,10.20
2023-02-27T04:34:18.145Z,9.40
2023-02-27T04:37:01.516Z,9.00
2023-02-27T04:39:36.652Z,8.70
2023-02-27T04:42:11.363Z,8.80
2023-02-27T04:44:41.378Z,8.30
2023-02-27T04:47:12.954Z,9.10
2023-02-27T04:49:48.460Z,9.50
2023-02-27T04:52:21.594Z,9.50
2023-02-27T04:54:56.431Z,11.60
2023-02-27T04:57:30.115Z,9.80
2023-02-27T05:00:01.626Z,9.70
2023-02-27T05:02:36.187Z,11.00
2023-02-27T05:05:10.817Z,11.10
2023-02-27T05:07:49.438Z,13.30
2023-02-27T05:10:32.681Z,12.50
2023-02-27T05:13:11.179Z,10.30
2023-02-27T05:15:53.180Z,13.10
2023-02-27T05:18:23.067Z,9.50
2023-02-27T05:21:06.592Z,11.60
2023-02-27T05:23:49.707Z,9.60
2023-02-27T05:26:25.171Z,8.90
2023-02-27T05:29:06.564Z,9.30
2023-02-27T05:31:52.457Z,12.60
2023-02-27T05:34:23.666Z,11.40
2023-02-27T05:37:05.048Z,9.20
2023-02-27T05:39:37.520Z,12.00
2023-02-27T05:42:11.938Z,11.30
2023-02-27T05:44:47.616Z,10.50
2023-02-27T05:47:23.746Z,11.10
2023-02-27T05:49:56.732Z,10.70
2023-02-27T05:52:26.848Z,10.10
2023-02-27T05:55:18.821Z,9.50
2023-02-27T05:57:55.045Z,10.00
2023-02-27T06:00:27.032Z,11.60
2023-02-27T06:02:55.298Z,8.20
2023-02-27T06:05:25.710Z,8.90
2023-02-27T06:07:53.693Z,11.80
2023-02-27T06:10:22.573Z,12.50
2023-02-27T06:12:50.542Z,11.20
2023-02-27T06:15:19.745Z,11.50
2023-02-27T06:17:47.717Z,11.50
2023-02-27T06:20:15.808Z,10.20
2023-02-27T06:22:44.055Z,10.30
2023-02-27T06:25:12.528Z,7.60
2023-02-27T06:27:40.515Z,5.80
2023-02-27T06:30:09.497Z,6.90
2023-02-27T06:32:37.393Z,9.40
2023-02-27T06:35:06.604Z,5.80
2023-02-27T06:37:34.832Z,6.30
2023-02-27T06:40:06.099Z,5.70
2023-02-27T06:42:34.041Z,5.60
2023-02-27T06:45:02.114Z,4.90
2023-02-27T06:47:30.086Z,5.20
2023-02-27T06:49:58.366Z,5.50
2023-02-27T06:52:26.756Z,4.90
2023-02-27T06:54:54.909Z,4.60
2023-02-27T06:57:22.915Z,4.60
2023-02-27T06:59:50.950Z,5.20
2023-02-27T07:02:19.031Z,5.60
2023-02-27T07:04:47.438Z,5.40
2023-02-27T07:07:34.630Z,3.10
2023-02-27T07:10:05.504Z,3.60
2023-02-27T07:12:33.842Z,3.30
2023-02-27T07:15:01.823Z,4.70
2023-02-27T07:17:30.287Z,3.80
2023-02-27T07:19:58.254Z,3.70
2023-02-27T07:22:26.252Z,2.50
2023-02-27T07:24:54.186Z,2.40
2023-02-27T07:27:22.159Z,3.40
2023-02-27T07:29:50.244Z,3.10
2023-02-27T07:32:18.354Z,3.60
2023-02-27T07:34:46.345Z,3.60
2023-02-27T07:37:14.339Z,4.70
2023-02-27T07:39:42.371Z,4.30
2023-02-27T07:42:10.685Z,4.10
2023-02-27T07:44:40.910Z,3.40
2023-02-27T07:47:09.083Z,3.40
2023-02-27T07:49:37.166Z,4.60
2023-02-27T07:52:05.263Z,4.50
2023-02-27T07:54:35.671Z,3.00
2023-02-27T07:57:05.472Z,4.10
2023-02-27T07:59:33.461Z,3.40
2023-02-27T08:02:01.399Z,5.60
2023-02-27T08:04:29.483Z,4.30
2023-02-27T08:06:58.156Z,3.40
2023-02-27T08:09:26.228Z,2.40
2023-02-27T08:11:54.216Z,2.50
2023-02-27T08:14:22.270Z,3.10
2023-02-27T08:16:50.281Z,1.50
2023-02-27T08:19:18.311Z,2.30
2023-02-27T08:21:46.379Z,3.40
2023-02-27T08:24:14.359Z,2.80
2023-02-27T08:26:42.335Z,2.90
2023-02-27T08:29:10.416Z,2.90
2023-02-27T08:31:38.379Z,3.80
2023-02-27T08:34:10.811Z,2.60
2023-02-27T08:36:39.747Z,3.50
2023-02-27T08:39:08.303Z,2.70
2023-02-27T08:41:37.189Z,2.60
2023-02-27T08:44:05.571Z,1.80
2023-02-27T08:46:33.656Z,2.70
2023-02-27T08:49:01.626Z,1.70
2023-02-27T08:51:29.892Z,1.90
2023-02-27T08:53:59.285Z,2.10
2023-02-27T08:56:28.611Z,3.40
2023-02-27T08:58:56.956Z,2.60
2023-02-27T09:01:28.715Z,2.00
2023-02-27T09:03:57.728Z,3.10
2023-02-27T09:06:26.494Z,2.90
2023-02-27T09:08:55.296Z,2.70
2023-02-27T09:11:23.364Z,2.60
2023-02-27T09:13:52.996Z,2.70
2023-02-27T09:16:22.505Z,2.80
2023-02-27T09:18:51.199Z,3.40
2023-02-27T09:21:19.330Z,4.00
2023-02-27T09:23:47.517Z,2.40
2023-02-27T09:26:17.259Z,2.60
2023-02-27T09:28:45.184Z,2.10
2023-02-27T09:31:13.617Z,2.10
2023-02-27T09:33:41.647Z,2.90
2023-02-27T09:36:09.688Z,2.20
2023-02-27T09:38:40.987Z,2.00
2023-02-27T09:41:32.575Z,3.20
2023-02-27T09:44:01.904Z,2.20
2023-02-27T09:46:30.150Z,3.40
2023-02-27T09:49:01.132Z,2.60
2023-02-27T09:51:29.960Z,4.90
2023-02-27T09:54:01.626Z,2.90
2023-02-27T09:56:35.717Z,2.70
2023-02-27T09:59:19.884Z,2.30
2023-02-27T10:02:08.666Z,1.90
2023-02-27T10:05:10.815Z,2.00
2023-02-27T10:07:52.412Z,2.50
2023-02-27T10:10:37.678Z,2.30
2023-02-27T10:13:39.691Z,2.00
2023-02-27T10:16:12.887Z,3.70
2023-02-27T10:18:55.689Z,2.80
2023-02-27T10:21:52.194Z,3.00
2023-02-27T10:24:21.832Z,2.00
2023-02-27T10:26:55.217Z,2.10
2023-02-27T10:29:42.748Z,2.80
2023-02-27T10:32:22.636Z,3.30
2023-02-27T10:35:06.631Z,3.30
2023-02-27T10:37:37.247Z,3.10
2023-02-27T10:40:07.075Z,15.90
2023-02-27T10:42:41.532Z,5.90
2023-02-27T10:45:15.892Z,2.90
2023-02-27T10:47:44.685Z,4.40
2023-02-27T10:50:23.710Z,3.80
2023-02-27T10:52:53.783Z,3.40
2023-02-27T10:55:34.340Z,2.40
2023-02-27T10:58:05.143Z,4.60
2023-02-27T11:00:53.486Z,2.50
2023-02-27T11:03:26.355Z,2.00
2023-02-27T11:05:57.335Z,3.20
2023-02-27T11:08:28.654Z,3.40
2023-02-27T11:11:12.096Z,5.00
2023-02-27T11:13:42.686Z,4.10
2023-02-27T11:16:17.383Z,3.10
2023-02-27T11:18:47.778Z,3.90
2023-02-27T11:21:26.645Z,1.70
2023-02-27T11:23:59.679Z,2.40
2023-02-27T11:26:34.709Z,3.30
2023-02-27T11:29:15.146Z,4.10
2023-02-27T11:31:54.168Z,2.10
2023-02-27T11:34:26.897Z,3.90
2023-02-27T11:37:02.006Z,3.20
2023-02-27T11:39:54.609Z,4.30
2023-02-27T11:42:31.809Z,3.70
2023-02-27T11:46:13.374Z,2.00
2023-02-27T11:48:40.072Z,3.50
2023-02-27T11:51:11.112Z,3.80
2023-02-27T11:54:07.356Z,3.20
2023-02-27T11:56:53.448Z,3.00
2023-02-27T11:59:53.662Z,5.20
2023-02-27T12:02:39.510Z,3.00
2023-02-27T12:05:26.573Z,3.00
2023-02-27T12:08:05.843Z,3.50
2023-02-27T12:11:07.806Z,3.50
2023-02-27T12:13:47.115Z,3.00
2023-02-27T12:16:27.445Z,3.50
2023-02-27T12:19:11.098Z,3.30
2023-02-27T12:21:49.135Z,5.90
2023-02-27T12:24:23.367Z,4.00
2023-02-27T12:27:02.049Z,5.20
2023-02-27T12:29:36.073Z,4.70
2023-02-27T12:32:23.553Z,4.80
2023-02-27T12:35:01.499Z,3.60
2023-02-27T12:37:33.711Z,2.90
2023-02-27T12:40:09.255Z,4.50
2023-02-27T12:42:55.892Z,3.60
2023-02-27T12:45:54.061Z,4.70
2023-02-27T12:49:04.331Z,4.50
2023-02-27T12:51:43.356Z,3.30
2023-02-27T12:54:30.394Z,2.50
2023-02-27T12:57:24.651Z,3.60
2023-02-27T13:00:12.736Z,2.30
2023-02-27T13:02:50.596Z,4.00
2023-02-27T13:05:32.355Z,3.00
2023-02-27T13:08:28.212Z,3.20
2023-02-27T13:11:17.603Z,4.70
2023-02-27T13:13:52.026Z,3.40
2023-02-27T13:16:20.015Z,3.50
2023-02-27T13:18:59.005Z,3.40
2023-02-27T13:22:05.012Z,3.30
2023-02-27T13:24:34.577Z,4.40
2023-02-27T13:27:04.788Z,4.00
2023-02-27T13:29:45.568Z,5.10
2023-02-27T13:32:16.418Z,4.10
2023-02-27T13:34:54.425Z,3.50
2023-02-27T13:37:22.401Z,2.40
2023-02-27T13:40:00.197Z,3.10
2023-02-27T13:42:28.337Z,4.30
2023-02-27T13:45:18.014Z,3.90
2023-02-27T13:47:50.224Z,4.30
2023-02-27T13:50:18.158Z,4.50
2023-02-27T13:52:47.088Z,5.00
2023-02-27T13:55:35.514Z,5.20
2023-02-27T13:58:05.823Z,3.50
2023-02-27T14:00:37.896Z,3.60
2023-02-27T14:03:18.624Z,4.50
2023-02-27T14:05:49.298Z,4.70
2023-02-27T14:08:55.701Z,4.70
2023-02-27T14:11:39.849Z,5.00
2023-02-27T14:14:29.601Z,6.10
2023-02-27T14:16:58.996Z,5.30
2023-02-27T14:19:29.519Z,4.70
2023-02-27T14:22:38.946Z,4.10
2023-02-27T14:25:22.321Z,9.80
2023-02-27T14:27:56.843Z,3.70
2023-02-27T14:30:41.298Z,4.90
2023-02-27T14:33:40.340Z,4.80
2023-02-27T14:36:19.424Z,3.80
2023-02-27T14:38:49.418Z,5.20
2023-02-27T14:41:39.622Z,3.20
2023-02-27T14:44:22.713Z,5.90
2023-02-27T14:46:54.400Z,5.80
2023-02-27T14:49:29.355Z,6.90
2023-02-27T14:51:57.578Z,6.10
2023-02-27T14:54:27.329Z,5.80
2023-02-27T14:57:07.127Z,5.90
2023-02-27T14:59:44.234Z,6.10
2023-02-27T15:02:24.574Z,4.20
2023-02-27T15:05:25.418Z,4.40
2023-02-27T15:07:54.197Z,5.50
2023-02-27T15:10:33.646Z,6.20
2023-02-27T15:13:02.834Z,6.10
2023-02-27T15:15:32.227Z,7.60
2023-02-27T15:18:01.158Z,6.10
2023-02-27T15:20:34.633Z,5.10
2023-02-27T15:23:28.706Z,5.10
2023-02-27T15:25:59.234Z,5.10
2023-02-27T15:28:32.349Z,6.60
2023-02-27T15:31:00.650Z,6.70
2023-02-27T15:33:31.947Z,6.50
2023-02-27T15:36:01.679Z,4.60
2023-02-27T15:38:31.058Z,7.30
2023-02-27T15:41:00.666Z,4.90
2023-02-27T15:43:30.087Z,5.80
2023-02-27T15:45:58.580Z,5.40
2023-02-27T15:48:27.130Z,6.10
2023-02-27T15:51:01.174Z,8.20
2023-02-27T15:53:30.965Z,6.00
2023-02-27T15:56:04.415Z,4.50
2023-02-27T15:58:36.855Z,9.60
2023-02-27T16:01:19.789Z,6.90
2023-02-27T16:03:50.675Z,5.90
2023-02-27T16:06:23.455Z,6.40
2023-02-27T16:08:52.860Z,5.50
2023-02-27T16:11:25.229Z,5.90
2023-02-27T16:13:54.775Z,6.40
2023-02-27T16:16:36.432Z,5.90
2023-02-27T16:19:27.065Z,9.00
2023-02-27T16:22:19.146Z,12.00
2023-02-27T16:24:47.949Z,8.70
2023-02-27T16:27:28.714Z,7.90
2023-02-27T16:30:03.047Z,6.10
2023-02-27T16:32:39.213Z,6.50
2023-02-27T16:35:16.904Z,7.20
2023-02-27T16:37:46.187Z,6.70
2023-02-27T16:40:23.593Z,5.90
2023-02-27T16:42:52.826Z,6.50
2023-02-27T16:45:23.521Z,8.00
2023-02-27T16:47:54.188Z,9.80
2023-02-27T16:50:30.901Z,11.40
2023-02-27T16:52:58.885Z,11.50
2023-02-27T16:55:30.180Z,46.00
2023-02-27T16:57:59.225Z,34.10
2023-02-27T17:00:27.446Z,63.70
2023-02-27T17:02:55.385Z,24.60
2023-02-27T17:05:24.408Z,17.20
2023-02-27T17:07:52.443Z,10.80
2023-02-27T17:10:24.727Z,12.50
2023-02-27T17:12:53.508Z,12.00
2023-02-27T17:15:22.283Z,10.90
2023-02-27T17:17:50.296Z,8.00
2023-02-27T17:20:18.229Z,7.60
2023-02-27T17:22:46.318Z,11.10
2023-02-27T17:25:15.303Z,9.70
2023-02-27T17:27:44.370Z,12.10
2023-02-27T17:30:14.635Z,25.20
2023-02-27T17:32:42.775Z,23.50
2023-02-27T17:35:11.458Z,14.10
2023-02-27T17:37:39.529Z,17.30
2023-02-27T17:40:08.507Z,15.20
2023-02-27T17:42:37.514Z,10.60
2023-02-27T17:45:08.172Z,12.40
2023-02-27T17:47:36.372Z,32.80
2023-02-27T17:50:05.425Z,26.00
2023-02-27T17:52:36.796Z,68.40
2023-02-27T17:55:06.543Z,74.50
2023-02-27T17:57:39.472Z,40.50
2023-02-27T18:00:09.505Z,35.00
2023-02-27T18:02:37.570Z,19.60
2023-02-27T18:05:06.941Z,19.00
2023-02-27T18:07:35.117Z,16.20
2023-02-27T18:10:05.797Z,51.80
2023-02-27T18:12:34.854Z,16.60
2023-02-27T18:15:04.492Z,12.60
2023-02-27T18:17:33.243Z,13.20
2023-02-27T18:20:01.469Z,11.90
2023-02-27T18:22:30.305Z,21.70
2023-02-27T18:24:58.879Z,35.60
2023-02-27T18:27:28.236Z,19.80
2023-02-27T18:29:57.898Z,16.70
2023-02-27T18:32:26.070Z,14.70
2023-02-27T18:34:54.401Z,15.70
2023-02-27T18:37:22.410Z,12.70
2023-02-27T18:39:50.485Z,11.40
2023-02-27T18:42:18.557Z,13.10
2023-02-27T18:44:47.882Z,14.20
2023-02-27T18:47:15.923Z,17.10
2023-02-27T18:49:44.319Z,14.00
2023-02-27T18:52:12.479Z,13.90
2023-02-27T18:54:42.602Z,15.30
2023-02-27T18:57:11.302Z,19.80
2023-02-27T18:59:41.456Z,26.20
2023-02-27T19:02:15.592Z,14.00
2023-02-27T19:04:43.819Z,13.90
2023-02-27T19:07:12.065Z,15.10
2023-02-27T19:09:40.544Z,23.20
2023-02-27T19:12:11.037Z,18.30
2023-02-27T19:14:40.068Z,21.90
2023-02-27T19:17:09.067Z,13.90
2023-02-27T19:19:38.095Z,15.00
2023-02-27T19:22:06.172Z,10.50
2023-02-27T19:24:34.320Z,11.90
2023-02-27T19:27:02.472Z,12.70
2023-02-27T19:29:30.793Z,12.60
2023-02-27T19:31:58.839Z,12.40
2023-02-27T19:34:26.789Z,10.90
2023-02-27T19:36:55.164Z,10.50
2023-02-27T19:39:23.364Z,10.30
2023-02-27T19:41:51.474Z,10.30
2023-02-27T19:44:19.480Z,11.40
2023-02-27T19:46:51.684Z,9.40
2023-02-27T19:49:20.259Z,8.50
2023-02-27T19:51:48.199Z,9.10
2023-02-27T19:54:17.605Z,9.70
2023-02-27T19:56:45.821Z,10.30
2023-02-27T19:59:13.854Z,11.00
2023-02-27T20:01:42.328Z,10.90
2023-02-27T20:04:11.593Z,13.80
2023-02-27T20:06:43.312Z,9.20
2023-02-27T20:09:14.845Z,8.60
2023-02-27T20:11:44.649Z,11.10
2023-02-27T20:14:15.294Z,11.70
2023-02-27T20:16:44.713Z,16.00
2023-02-27T20:19:16.644Z,11.00
2023-02-27T20:21:45.732Z,10.00
2023-02-27T20:24:14.918Z,8.90
2023-02-27T20:26:46.296Z,9.20
2023-02-27T20:29:21.417Z,10.80
2023-02-27T20:31:51.602Z,10.70
2023-02-27T20:34:26.411Z,13.40
2023-02-27T20:36:56.274Z,10.20
2023-02-27T20:39:25.502Z,12.50
2023-02-27T20:41:53.563Z,12.60
2023-02-27T20:44:21.721Z,13.90
2023-02-27T20:46:49.890Z,12.20
2023-02-27T20:49:18.600Z,13.10
2023-02-27T20:51:46.618Z,14.80
2023-02-27T20:54:20.256Z,13.20
2023-02-27T20:56:54.509Z,12.10
2023-02-27T20:59:25.357Z,11.40
2023-02-27T21:01:54.773Z,10.90
2023-02-27T21:04:47.653Z,11.80
2023-02-27T21:07:21.364Z,9.30
2023-02-27T21:09:51.084Z,10.40
2023-02-27T21:12:19.246Z,10.20
2023-02-27T21:14:49.517Z,10.00
2023-02-27T21:17:17.552Z,11.90
2023-02-27T21:19:45.923Z,12.70
2023-02-27T21:22:14.548Z,11.40
2023-02-27T21:24:42.886Z,11.40
2023-02-27T21:27:10.846Z,14.90
2023-02-27T21:29:39.339Z,12.00
2023-02-27T21:32:07.940Z,13.10
2023-02-27T21:34:36.505Z,10.60
2023-02-27T21:37:06.457Z,13.10
2023-02-27T21:39:34.492Z,13.50
2023-02-27T21:42:02.559Z,11.00
2023-02-27T21:44:32.144Z,11.20
2023-02-27T21:47:10.413Z,10.70
2023-02-27T21:49:39.465Z,13.20
2023-02-27T21:52:07.529Z,14.80
2023-02-27T21:54:36.151Z,11.60
2023-02-27T21:57:04.286Z,12.40
2023-02-27T21:59:32.356Z,12.80
2023-02-27T22:02:00.500Z,11.20
2023-02-27T22:04:28.808Z,12.60
2023-02-27T22:06:57.073Z,12.70
2023-02-27T22:09:25.050Z,13.40
2023-02-27T22:11:53.564Z,12.80
2023-02-27T22:14:21.714Z,12.20
2023-02-27T22:16:49.976Z,13.50
2023-02-27T22:19:22.734Z,11.80
2023-02-27T22:21:52.049Z,12.10
2023-02-27T22:24:20.671Z,12.80
2023-02-27T22:26:50.401Z,13.70
2023-02-27T22:29:19.244Z,12.20
2023-02-27T22:31:47.287Z,14.90
2023-02-27T22:34:20.850Z,13.90
2023-02-27T22:36:52.648Z,17.20
2023-02-27T22:39:21.499Z,19.90
2023-02-27T22:41:50.248Z,17.60
2023-02-27T22:44:18.421Z,17.10
2023-02-27T22:46:48.998Z,16.50
2023-02-27T22:49:23.363Z,14.60
2023-02-27T22:51:52.386Z,15.50
2023-02-27T22:54:22.429Z,12.70
2023-02-27T22:56:52.359Z,12.00
2023-02-27T22:59:21.609Z,12.20
2023-02-27T23:01:50.717Z,14.10
2023-02-27T23:04:18.999Z,10.60
2023-02-27T23:06:47.134Z,14.40
2023-02-27T23:09:20.853Z,11.30
2023-02-27T23:11:48.847Z,12.50
2023-02-27T23:14:17.397Z,11.90
2023-02-27T23:16:46.077Z,14.10
2023-02-27T23:19:17.064Z,12.10
2023-02-27T23:21:45.300Z,12.00
2023-02-27T23:24:18.603Z,12.70
2023-02-27T23:26:49.614Z,15.10
2023-02-27T23:29:18.119Z,13.30
2023-02-27T23:31:46.389Z,13.00
2023-02-27T23:34:14.563Z,12.60
2023-02-27T23:36:42.732Z,13.20
2023-02-27T23:39:10.800Z,12.60
2023-02-27T23:41:38.972Z,12.70
2023-02-27T23:44:06.939Z,13.90
2023-02-27T23:46:34.911Z,15.80
2023-02-27T23:49:03.600Z,12.20
2023-02-27T23:51:33.404Z,15.10
2023-02-27T23:54:01.826Z,14.30
2023-02-27T23:56:31.213Z,14.20
2023-02-27T23:59:02.798Z,12.40
